sensor_id;sensor_type;location;lat;lon;timestamp;P1;durP1;ratioP1;P2;durP2;ratioP2
4652;SDS011;9900;48.738;9.306;2023-08-06T00:00:53;8.00;;;6.30;;
4652;SDS011;9900;48.738;9.306;2023-08-06T00:03:23;8.07;;;5.63;;
4652;SDS011;9900;48.738;9.306;2023-08-06T00:05:52;6.03;;;5.33;;
4652;SDS011;9900;48.738;9.306;2023-08-06T00:08:20;9.73;;;6.00;;
4652;SDS011;9900;48.738;9.306;2023-08-06T00:10:50;6.30;;;5.00;;
4652;SDS011;9900;48.738;9.306;2023-08-06T00:13:19;7.17;;;5.60;;
4652;SDS011;9900;48.738;9.306;2023-08-06T00:15:48;6.47;;;5.30;;
4652;SDS011;9900;48.738;9.306;2023-08-06T00:18:17;5.43;;;4.60;;
4652;SDS011;9900;48.738;9.306;2023-08-06T00:20:46;8.97;;;5.57;;
4652;SDS011;9900;48.738;9.306;2023-08-06T00:23:15;6.73;;;5.47;;
4652;SDS011;9900;48.738;9.306;2023-08-06T00:25:43;7.20;;;6.00;;
4652;SDS011;9900;48.738;9.306;2023-08-06T00:28:14;6.70;;;5.87;;
4652;SDS011;9900;48.738;9.306;2023-08-06T00:30:42;6.83;;;6.13;;
4652;SDS011;9900;48.738;9.306;2023-08-06T00:33:11;8.53;;;5.37;;
4652;SDS011;9900;48.738;9.306;2023-08-06T00:35:40;7.73;;;5.13;;
4652;SDS011;9900;48.738;9.306;2023-08-06T00:38:09;6.17;;;5.57;;
4652;SDS011;9900;48.738;9.306;2023-08-06T00:40:38;6.67;;;5.93;;
4652;SDS011;9900;48.738;9.306;2023-08-06T00:43:07;11.63;;;5.83;;
4652;SDS011;9900;48.738;9.306;2023-08-06T00:45:37;15.00;;;6.13;;
4652;SDS011;9900;48.738;9.306;2023-08-06T00:48:06;7.03;;;6.17;;
4652;SDS011;9900;48.738;9.306;2023-08-06T00:50:35;7.40;;;6.50;;
4652;SDS011;9900;48.738;9.306;2023-08-06T00:53:04;8.87;;;7.00;;
4652;SDS011;9900;48.738;9.306;2023-08-06T00:55:32;10.73;;;7.40;;
4652;SDS011;9900;48.738;9.306;2023-08-06T00:58:01;7.47;;;6.03;;
4652;SDS011;9900;48.738;9.306;2023-08-06T01:00:31;8.50;;;6.73;;
4652;SDS011;9900;48.738;9.306;2023-08-06T01:03:01;6.90;;;6.20;;
4652;SDS011;9900;48.738;9.306;2023-08-06T01:05:30;7.90;;;7.07;;
4652;SDS011;9900;48.738;9.306;2023-08-06T01:08:06;14.40;;;7.70;;
4652;SDS011;9900;48.738;9.306;2023-08-06T01:10:44;8.67;;;6.30;;
4652;SDS011;9900;48.738;9.306;2023-08-06T01:13:18;7.33;;;6.57;;
4652;SDS011;9900;48.738;9.306;2023-08-06T01:15:54;7.50;;;6.30;;
4652;SDS011;9900;48.738;9.306;2023-08-06T01:18:26;7.00;;;6.33;;
4652;SDS011;9900;48.738;9.306;2023-08-06T01:20:56;7.00;;;6.30;;
4652;SDS011;9900;48.738;9.306;2023-08-06T01:23:25;9.17;;;6.87;;
4652;SDS011;9900;48.738;9.306;2023-08-06T01:25:56;13.60;;;7.00;;
4652;SDS011;9900;48.738;9.306;2023-08-06T01:28:33;7.60;;;6.77;;
4652;SDS011;9900;48.738;9.306;2023-08-06T01:31:10;10.60;;;6.80;;
4652;SDS011;9900;48.738;9.306;2023-08-06T01:33:44;8.87;;;6.80;;
4652;SDS011;9900;48.738;9.306;2023-08-06T01:36:16;10.53;;;7.10;;
4652;SDS011;9900;48.738;9.306;2023-08-06T01:38:45;7.73;;;6.00;;
4652;SDS011;9900;48.738;9.306;2023-08-06T01:41:14;11.30;;;6.87;;
4652;SDS011;9900;48.738;9.306;2023-08-06T01:43:43;7.60;;;6.83;;
4652;SDS011;9900;48.738;9.306;2023-08-06T01:46:12;9.57;;;6.97;;
4652;SDS011;9900;48.738;9.306;2023-08-06T01:48:41;11.23;;;7.40;;
4652;SDS011;9900;48.738;9.306;2023-08-06T01:51:10;8.63;;;7.03;;
4652;SDS011;9900;48.738;9.306;2023-08-06T01:53:40;7.90;;;6.53;;
4652;SDS011;9900;48.738;9.306;2023-08-06T01:56:09;7.80;;;6.30;;
4652;SDS011;9900;48.738;9.306;2023-08-06T01:58:38;6.80;;;6.20;;
4652;SDS011;9900;48.738;9.306;2023-08-06T02:01:12;8.03;;;5.63;;
4652;SDS011;9900;48.738;9.306;2023-08-06T02:04:19;8.40;;;5.50;;
4652;SDS011;9900;48.738;9.306;2023-08-06T02:06:48;5.97;;;5.40;;
4652;SDS011;9900;48.738;9.306;2023-08-06T02:09:18;7.43;;;5.60;;
4652;SDS011;9900;48.738;9.306;2023-08-06T02:11:47;6.17;;;4.83;;
4652;SDS011;9900;48.738;9.306;2023-08-06T02:14:16;5.70;;;5.10;;
4652;SDS011;9900;48.738;9.306;2023-08-06T02:16:45;8.50;;;5.03;;
4652;SDS011;9900;48.738;9.306;2023-08-06T02:19:13;7.23;;;4.80;;
4652;SDS011;9900;48.738;9.306;2023-08-06T02:21:42;12.93;;;4.90;;
4652;SDS011;9900;48.738;9.306;2023-08-06T02:24:11;5.53;;;4.90;;
4652;SDS011;9900;48.738;9.306;2023-08-06T02:26:41;10.27;;;3.80;;
4652;SDS011;9900;48.738;9.306;2023-08-06T02:29:10;4.43;;;4.03;;
4652;SDS011;9900;48.738;9.306;2023-08-06T02:31:39;4.90;;;4.37;;
4652;SDS011;9900;48.738;9.306;2023-08-06T02:34:08;4.70;;;3.57;;
4652;SDS011;9900;48.738;9.306;2023-08-06T02:36:37;3.73;;;3.43;;
4652;SDS011;9900;48.738;9.306;2023-08-06T02:39:06;3.67;;;3.37;;
4652;SDS011;9900;48.738;9.306;2023-08-06T02:41:35;3.33;;;3.03;;
4652;SDS011;9900;48.738;9.306;2023-08-06T02:44:05;6.47;;;3.17;;
4652;SDS011;9900;48.738;9.306;2023-08-06T02:46:34;3.50;;;3.20;;
4652;SDS011;9900;48.738;9.306;2023-08-06T02:49:03;5.10;;;3.00;;
4652;SDS011;9900;48.738;9.306;2023-08-06T02:51:31;4.63;;;3.30;;
4652;SDS011;9900;48.738;9.306;2023-08-06T02:54:00;5.30;;;3.40;;
4652;SDS011;9900;48.738;9.306;2023-08-06T02:56:29;3.50;;;3.20;;
4652;SDS011;9900;48.738;9.306;2023-08-06T02:58:59;3.73;;;3.13;;
4652;SDS011;9900;48.738;9.306;2023-08-06T03:01:29;8.47;;;2.83;;
4652;SDS011;9900;48.738;9.306;2023-08-06T03:03:58;3.93;;;2.77;;
4652;SDS011;9900;48.738;9.306;2023-08-06T03:06:27;3.63;;;2.60;;
4652;SDS011;9900;48.738;9.306;2023-08-06T03:08:56;4.57;;;2.83;;
4652;SDS011;9900;48.738;9.306;2023-08-06T03:11:25;4.10;;;3.30;;
4652;SDS011;9900;48.738;9.306;2023-08-06T03:13:54;6.97;;;3.03;;
4652;SDS011;9900;48.738;9.306;2023-08-06T03:16:22;2.93;;;2.70;;
4652;SDS011;9900;48.738;9.306;2023-08-06T03:18:53;3.53;;;2.10;;
4652;SDS011;9900;48.738;9.306;2023-08-06T03:21:22;2.90;;;2.40;;
4652;SDS011;9900;48.738;9.306;2023-08-06T03:23:50;4.47;;;3.17;;
4652;SDS011;9900;48.738;9.306;2023-08-06T03:26:19;3.23;;;2.40;;
4652;SDS011;9900;48.738;9.306;2023-08-06T03:28:48;3.73;;;2.70;;
4652;SDS011;9900;48.738;9.306;2023-08-06T03:31:17;7.87;;;3.10;;
4652;SDS011;9900;48.738;9.306;2023-08-06T03:33:46;5.93;;;3.30;;
4652;SDS011;9900;48.738;9.306;2023-08-06T03:36:16;3.17;;;2.87;;
4652;SDS011;9900;48.738;9.306;2023-08-06T03:38:45;3.30;;;3.00;;
4652;SDS011;9900;48.738;9.306;2023-08-06T03:41:14;3.47;;;3.03;;
4652;SDS011;9900;48.738;9.306;2023-08-06T03:43:42;3.40;;;2.90;;
4652;SDS011;9900;48.738;9.306;2023-08-06T03:46:11;4.13;;;3.73;;
4652;SDS011;9900;48.738;9.306;2023-08-06T03:48:40;3.87;;;3.40;;
4652;SDS011;9900;48.738;9.306;2023-08-06T03:51:09;4.23;;;3.67;;
4652;SDS011;9900;48.738;9.306;2023-08-06T03:53:39;3.60;;;3.20;;
4652;SDS011;9900;48.738;9.306;2023-08-06T03:56:08;7.57;;;3.40;;
4652;SDS011;9900;48.738;9.306;2023-08-06T03:58:37;9.93;;;3.10;;
4652;SDS011;9900;48.738;9.306;2023-08-06T04:01:06;3.93;;;2.73;;
4652;SDS011;9900;48.738;9.306;2023-08-06T04:03:35;4.50;;;3.30;;
4652;SDS011;9900;48.738;9.306;2023-08-06T04:06:04;6.40;;;3.93;;
4652;SDS011;9900;48.738;9.306;2023-08-06T04:08:34;6.60;;;3.27;;
4652;SDS011;9900;48.738;9.306;2023-08-06T04:11:04;3.17;;;2.87;;
4652;SDS011;9900;48.738;9.306;2023-08-06T04:13:33;3.40;;;3.10;;
4652;SDS011;9900;48.738;9.306;2023-08-06T04:16:02;3.87;;;2.77;;
4652;SDS011;9900;48.738;9.306;2023-08-06T04:18:31;3.33;;;2.60;;
4652;SDS011;9900;48.738;9.306;2023-08-06T04:21:01;5.13;;;2.50;;
4652;SDS011;9900;48.738;9.306;2023-08-06T04:23:30;4.93;;;2.53;;
4652;SDS011;9900;48.738;9.306;2023-08-06T04:25:59;4.50;;;2.93;;
4652;SDS011;9900;48.738;9.306;2023-08-06T04:28:29;3.00;;;2.80;;
4652;SDS011;9900;48.738;9.306;2023-08-06T04:30:58;3.07;;;2.83;;
4652;SDS011;9900;48.738;9.306;2023-08-06T04:33:27;7.03;;;2.70;;
4652;SDS011;9900;48.738;9.306;2023-08-06T04:35:56;4.90;;;3.10;;
4652;SDS011;9900;48.738;9.306;2023-08-06T04:38:25;4.20;;;3.00;;
4652;SDS011;9900;48.738;9.306;2023-08-06T04:40:54;4.33;;;2.70;;
4652;SDS011;9900;48.738;9.306;2023-08-06T04:43:23;7.60;;;3.03;;
4652;SDS011;9900;48.738;9.306;2023-08-06T04:45:54;3.10;;;2.63;;
4652;SDS011;9900;48.738;9.306;2023-08-06T04:48:23;8.63;;;3.00;;
4652;SDS011;9900;48.738;9.306;2023-08-06T04:50:52;3.40;;;2.70;;
4652;SDS011;9900;48.738;9.306;2023-08-06T04:53:21;8.30;;;2.77;;
4652;SDS011;9900;48.738;9.306;2023-08-06T04:55:50;3.00;;;2.50;;
4652;SDS011;9900;48.738;9.306;2023-08-06T04:58:19;2.87;;;2.00;;
4652;SDS011;9900;48.738;9.306;2023-08-06T05:00:48;2.70;;;2.23;;
4652;SDS011;9900;48.738;9.306;2023-08-06T05:03:18;3.80;;;1.70;;
4652;SDS011;9900;48.738;9.306;2023-08-06T05:05:47;2.80;;;1.80;;
4652;SDS011;9900;48.738;9.306;2023-08-06T05:08:17;1.77;;;1.40;;
4652;SDS011;9900;48.738;9.306;2023-08-06T05:10:46;8.03;;;1.60;;
4652;SDS011;9900;48.738;9.306;2023-08-06T05:13:15;2.30;;;1.50;;
4652;SDS011;9900;48.738;9.306;2023-08-06T05:15:44;3.53;;;1.10;;
4652;SDS011;9900;48.738;9.306;2023-08-06T05:18:13;2.60;;;1.50;;
4652;SDS011;9900;48.738;9.306;2023-08-06T05:20:44;1.90;;;1.30;;
4652;SDS011;9900;48.738;9.306;2023-08-06T05:23:13;7.17;;;1.33;;
4652;SDS011;9900;48.738;9.306;2023-08-06T05:25:42;2.53;;;1.37;;
4652;SDS011;9900;48.738;9.306;2023-08-06T05:28:11;1.67;;;1.13;;
4652;SDS011;9900;48.738;9.306;2023-08-06T05:30:39;5.20;;;1.40;;
4652;SDS011;9900;48.738;9.306;2023-08-06T05:33:08;2.13;;;1.40;;
4652;SDS011;9900;48.738;9.306;2023-08-06T05:35:37;1.93;;;1.03;;
4652;SDS011;9900;48.738;9.306;2023-08-06T05:38:08;2.33;;;1.23;;
4652;SDS011;9900;48.738;9.306;2023-08-06T05:40:36;4.73;;;1.23;;
4652;SDS011;9900;48.738;9.306;2023-08-06T05:43:05;1.87;;;1.00;;
4652;SDS011;9900;48.738;9.306;2023-08-06T05:45:34;2.43;;;1.10;;
4652;SDS011;9900;48.738;9.306;2023-08-06T05:48:03;1.93;;;1.00;;
4652;SDS011;9900;48.738;9.306;2023-08-06T05:50:32;2.23;;;1.30;;
4652;SDS011;9900;48.738;9.306;2023-08-06T05:53:01;1.90;;;1.30;;
4652;SDS011;9900;48.738;9.306;2023-08-06T05:55:31;2.10;;;0.90;;
4652;SDS011;9900;48.738;9.306;2023-08-06T05:58:01;4.00;;;1.27;;
4652;SDS011;9900;48.738;9.306;2023-08-06T06:00:30;2.07;;;0.97;;
4652;SDS011;9900;48.738;9.306;2023-08-06T06:02:59;2.20;;;1.07;;
4652;SDS011;9900;48.738;9.306;2023-08-06T06:05:28;1.80;;;1.03;;
4652;SDS011;9900;48.738;9.306;2023-08-06T06:07:56;1.43;;;0.80;;
4652;SDS011;9900;48.738;9.306;2023-08-06T06:10:25;1.43;;;1.00;;
4652;SDS011;9900;48.738;9.306;2023-08-06T06:12:56;5.13;;;1.00;;
4652;SDS011;9900;48.738;9.306;2023-08-06T06:15:25;2.67;;;1.00;;
4652;SDS011;9900;48.738;9.306;2023-08-06T06:17:54;1.47;;;0.90;;
4652;SDS011;9900;48.738;9.306;2023-08-06T06:20:23;1.30;;;1.10;;
4652;SDS011;9900;48.738;9.306;2023-08-06T06:22:52;1.70;;;1.10;;
4652;SDS011;9900;48.738;9.306;2023-08-06T06:25:21;3.00;;;1.20;;
4652;SDS011;9900;48.738;9.306;2023-08-06T06:27:50;4.77;;;1.53;;
4652;SDS011;9900;48.738;9.306;2023-08-06T06:30:21;2.77;;;0.80;;
4652;SDS011;9900;48.738;9.306;2023-08-06T06:32:50;3.20;;;0.80;;
4652;SDS011;9900;48.738;9.306;2023-08-06T06:35:19;1.47;;;1.10;;
4652;SDS011;9900;48.738;9.306;2023-08-06T06:37:48;1.67;;;0.90;;
4652;SDS011;9900;48.738;9.306;2023-08-06T06:40:16;3.00;;;0.93;;
4652;SDS011;9900;48.738;9.306;2023-08-06T06:42:45;2.50;;;1.00;;
4652;SDS011;9900;48.738;9.306;2023-08-06T06:45:14;5.90;;;1.00;;
4652;SDS011;9900;48.738;9.306;2023-08-06T06:47:44;1.10;;;0.70;;
4652;SDS011;9900;48.738;9.306;2023-08-06T06:50:13;7.60;;;1.10;;
4652;SDS011;9900;48.738;9.306;2023-08-06T06:52:42;1.10;;;0.80;;
4652;SDS011;9900;48.738;9.306;2023-08-06T06:55:11;1.77;;;0.80;;
4652;SDS011;9900;48.738;9.306;2023-08-06T06:57:40;1.63;;;1.00;;
4652;SDS011;9900;48.738;9.306;2023-08-06T07:00:09;2.67;;;0.80;;
4652;SDS011;9900;48.738;9.306;2023-08-06T07:02:39;1.50;;;0.90;;
4652;SDS011;9900;48.738;9.306;2023-08-06T07:05:09;3.77;;;0.80;;
4652;SDS011;9900;48.738;9.306;2023-08-06T07:07:38;2.53;;;0.93;;
4652;SDS011;9900;48.738;9.306;2023-08-06T07:10:07;2.60;;;0.73;;
4652;SDS011;9900;48.738;9.306;2023-08-06T07:12:36;1.50;;;0.73;;
4652;SDS011;9900;48.738;9.306;2023-08-06T07:15:05;1.17;;;0.70;;
4652;SDS011;9900;48.738;9.306;2023-08-06T07:17:35;1.30;;;0.73;;
4652;SDS011;9900;48.738;9.306;2023-08-06T07:20:04;0.80;;;0.70;;
4652;SDS011;9900;48.738;9.306;2023-08-06T07:22:36;1.40;;;0.70;;
4652;SDS011;9900;48.738;9.306;2023-08-06T07:25:05;2.60;;;0.70;;
4652;SDS011;9900;48.738;9.306;2023-08-06T07:27:34;3.40;;;0.90;;
4652;SDS011;9900;48.738;9.306;2023-08-06T07:30:03;3.47;;;0.70;;
4652;SDS011;9900;48.738;9.306;2023-08-06T07:32:33;2.43;;;0.90;;
4652;SDS011;9900;48.738;9.306;2023-08-06T07:35:03;1.47;;;0.67;;
4652;SDS011;9900;48.738;9.306;2023-08-06T07:37:33;1.77;;;0.70;;
4652;SDS011;9900;48.738;9.306;2023-08-06T07:40:03;1.93;;;0.60;;
4652;SDS011;9900;48.738;9.306;2023-08-06T07:42:33;1.33;;;0.50;;
4652;SDS011;9900;48.738;9.306;2023-08-06T07:45:02;1.90;;;1.07;;
4652;SDS011;9900;48.738;9.306;2023-08-06T07:47:31;1.93;;;0.80;;
4652;SDS011;9900;48.738;9.306;2023-08-06T07:50:00;3.53;;;1.40;;
4652;SDS011;9900;48.738;9.306;2023-08-06T07:52:29;2.13;;;0.80;;
4652;SDS011;9900;48.738;9.306;2023-08-06T07:54:57;1.83;;;0.60;;
4652;SDS011;9900;48.738;9.306;2023-08-06T07:57:29;0.90;;;0.50;;
4652;SDS011;9900;48.738;9.306;2023-08-06T07:59:58;0.70;;;0.50;;
4652;SDS011;9900;48.738;9.306;2023-08-06T08:02:27;0.70;;;0.50;;
4652;SDS011;9900;48.738;9.306;2023-08-06T08:04:57;1.00;;;0.60;;
4652;SDS011;9900;48.738;9.306;2023-08-06T08:07:26;0.80;;;0.50;;
4652;SDS011;9900;48.738;9.306;2023-08-06T08:09:57;0.90;;;0.50;;
4652;SDS011;9900;48.738;9.306;2023-08-06T08:12:26;1.23;;;0.60;;
4652;SDS011;9900;48.738;9.306;2023-08-06T08:14:56;0.70;;;0.60;;
4652;SDS011;9900;48.738;9.306;2023-08-06T08:17:25;1.40;;;0.60;;
4652;SDS011;9900;48.738;9.306;2023-08-06T08:19:54;0.70;;;0.50;;
4652;SDS011;9900;48.738;9.306;2023-08-06T08:22:23;1.03;;;0.50;;
4652;SDS011;9900;48.738;9.306;2023-08-06T08:24:52;1.40;;;0.60;;
4652;SDS011;9900;48.738;9.306;2023-08-06T08:27:21;0.70;;;0.50;;
4652;SDS011;9900;48.738;9.306;2023-08-06T08:29:50;1.33;;;0.60;;
4652;SDS011;9900;48.738;9.306;2023-08-06T08:32:20;5.13;;;0.50;;
4652;SDS011;9900;48.738;9.306;2023-08-06T08:34:49;0.80;;;0.60;;
4652;SDS011;9900;48.738;9.306;2023-08-06T08:37:18;0.90;;;0.60;;
4652;SDS011;9900;48.738;9.306;2023-08-06T08:39:47;0.60;;;0.40;;
4652;SDS011;9900;48.738;9.306;2023-08-06T08:42:16;2.07;;;0.50;;
4652;SDS011;9900;48.738;9.306;2023-08-06T08:44:45;0.70;;;0.50;;
4652;SDS011;9900;48.738;9.306;2023-08-06T08:47:14;0.63;;;0.50;;
4652;SDS011;9900;48.738;9.306;2023-08-06T08:49:45;1.07;;;0.60;;
4652;SDS011;9900;48.738;9.306;2023-08-06T08:52:14;0.70;;;0.50;;
4652;SDS011;9900;48.738;9.306;2023-08-06T08:54:43;0.70;;;0.47;;
4652;SDS011;9900;48.738;9.306;2023-08-06T08:57:13;0.70;;;0.50;;
4652;SDS011;9900;48.738;9.306;2023-08-06T08:59:42;1.20;;;0.50;;
4652;SDS011;9900;48.738;9.306;2023-08-06T09:02:11;3.87;;;0.60;;
4652;SDS011;9900;48.738;9.306;2023-08-06T09:04:41;0.70;;;0.50;;
4652;SDS011;9900;48.738;9.306;2023-08-06T09:07:13;0.70;;;0.50;;
4652;SDS011;9900;48.738;9.306;2023-08-06T09:09:43;0.60;;;0.47;;
4652;SDS011;9900;48.738;9.306;2023-08-06T09:12:15;2.07;;;0.50;;
4652;SDS011;9900;48.738;9.306;2023-08-06T09:14:45;5.33;;;0.53;;
4652;SDS011;9900;48.738;9.306;2023-08-06T09:17:14;1.00;;;0.67;;
4652;SDS011;9900;48.738;9.306;2023-08-06T09:19:46;0.77;;;0.53;;
4652;SDS011;9900;48.738;9.306;2023-08-06T09:22:18;0.70;;;0.50;;
4652;SDS011;9900;48.738;9.306;2023-08-06T09:24:47;1.10;;;0.50;;
4652;SDS011;9900;48.738;9.306;2023-08-06T09:27:17;0.70;;;0.50;;
4652;SDS011;9900;48.738;9.306;2023-08-06T09:29:46;0.70;;;0.50;;
4652;SDS011;9900;48.738;9.306;2023-08-06T09:32:16;0.63;;;0.50;;
4652;SDS011;9900;48.738;9.306;2023-08-06T09:34:45;1.33;;;0.50;;
4652;SDS011;9900;48.738;9.306;2023-08-06T09:37:14;0.70;;;0.50;;
4652;SDS011;9900;48.738;9.306;2023-08-06T09:39:45;1.00;;;0.50;;
4652;SDS011;9900;48.738;9.306;2023-08-06T09:42:14;0.80;;;0.60;;
4652;SDS011;9900;48.738;9.306;2023-08-06T09:44:43;0.97;;;0.80;;
4652;SDS011;9900;48.738;9.306;2023-08-06T09:47:13;0.77;;;0.50;;
4652;SDS011;9900;48.738;9.306;2023-08-06T09:49:44;1.43;;;0.60;;
4652;SDS011;9900;48.738;9.306;2023-08-06T09:52:13;2.50;;;0.60;;
4652;SDS011;9900;48.738;9.306;2023-08-06T09:54:45;0.70;;;0.50;;
4652;SDS011;9900;48.738;9.306;2023-08-06T09:57:14;0.90;;;0.60;;
4652;SDS011;9900;48.738;9.306;2023-08-06T09:59:44;0.70;;;0.50;;
4652;SDS011;9900;48.738;9.306;2023-08-06T10:02:14;0.60;;;0.40;;
4652;SDS011;9900;48.738;9.306;2023-08-06T10:04:44;0.70;;;0.50;;
4652;SDS011;9900;48.738;9.306;2023-08-06T10:07:21;0.70;;;0.50;;
4652;SDS011;9900;48.738;9.306;2023-08-06T10:09:53;0.80;;;0.63;;
4652;SDS011;9900;48.738;9.306;2023-08-06T10:12:22;0.93;;;0.47;;
4652;SDS011;9900;48.738;9.306;2023-08-06T10:14:54;1.13;;;0.50;;
4652;SDS011;9900;48.738;9.306;2023-08-06T10:17:24;0.90;;;0.57;;
4652;SDS011;9900;48.738;9.306;2023-08-06T10:20:14;0.70;;;0.60;;
4652;SDS011;9900;48.738;9.306;2023-08-06T10:22:43;1.23;;;0.50;;
4652;SDS011;9900;48.738;9.306;2023-08-06T10:25:17;1.00;;;0.50;;
4652;SDS011;9900;48.738;9.306;2023-08-06T10:27:54;0.80;;;0.50;;
4652;SDS011;9900;48.738;9.306;2023-08-06T10:30:24;0.60;;;0.40;;
4652;SDS011;9900;48.738;9.306;2023-08-06T10:32:54;0.70;;;0.50;;
4652;SDS011;9900;48.738;9.306;2023-08-06T10:35:31;0.70;;;0.60;;
4652;SDS011;9900;48.738;9.306;2023-08-06T10:38:03;0.93;;;0.50;;
4652;SDS011;9900;48.738;9.306;2023-08-06T10:40:34;0.70;;;0.50;;
4652;SDS011;9900;48.738;9.306;2023-08-06T10:43:04;0.70;;;0.50;;
4652;SDS011;9900;48.738;9.306;2023-08-06T10:45:35;1.70;;;1.10;;
4652;SDS011;9900;48.738;9.306;2023-08-06T10:48:05;0.90;;;0.60;;
4652;SDS011;9900;48.738;9.306;2023-08-06T10:50:34;1.03;;;0.60;;
4652;SDS011;9900;48.738;9.306;2023-08-06T10:53:04;2.50;;;0.50;;
4652;SDS011;9900;48.738;9.306;2023-08-06T10:55:34;0.70;;;0.50;;
4652;SDS011;9900;48.738;9.306;2023-08-06T10:58:05;1.13;;;0.50;;
4652;SDS011;9900;48.738;9.306;2023-08-06T11:00:34;0.80;;;0.60;;
4652;SDS011;9900;48.738;9.306;2023-08-06T11:03:03;2.30;;;0.50;;
4652;SDS011;9900;48.738;9.306;2023-08-06T11:05:32;2.27;;;0.50;;
4652;SDS011;9900;48.738;9.306;2023-08-06T11:08:01;0.70;;;0.50;;
4652;SDS011;9900;48.738;9.306;2023-08-06T11:10:32;0.70;;;0.50;;
4652;SDS011;9900;48.738;9.306;2023-08-06T11:13:03;0.70;;;0.60;;
4652;SDS011;9900;48.738;9.306;2023-08-06T11:15:35;6.27;;;0.90;;
4652;SDS011;9900;48.738;9.306;2023-08-06T11:18:03;0.70;;;0.50;;
4652;SDS011;9900;48.738;9.306;2023-08-06T11:20:33;1.00;;;0.90;;
4652;SDS011;9900;48.738;9.306;2023-08-06T11:23:02;0.80;;;0.60;;
4652;SDS011;9900;48.738;9.306;2023-08-06T11:25:35;1.53;;;0.60;;
4652;SDS011;9900;48.738;9.306;2023-08-06T11:28:06;1.00;;;0.60;;
4652;SDS011;9900;48.738;9.306;2023-08-06T11:30:35;1.47;;;0.60;;
4652;SDS011;9900;48.738;9.306;2023-08-06T11:33:06;0.90;;;0.60;;
4652;SDS011;9900;48.738;9.306;2023-08-06T11:35:37;0.70;;;0.50;;
4652;SDS011;9900;48.738;9.306;2023-08-06T11:38:07;0.90;;;0.60;;
4652;SDS011;9900;48.738;9.306;2023-08-06T11:40:36;0.70;;;0.60;;
4652;SDS011;9900;48.738;9.306;2023-08-06T11:43:07;4.40;;;0.60;;
4652;SDS011;9900;48.738;9.306;2023-08-06T11:45:36;1.67;;;0.60;;
4652;SDS011;9900;48.738;9.306;2023-08-06T11:48:05;0.90;;;0.60;;
4652;SDS011;9900;48.738;9.306;2023-08-06T11:50:36;0.80;;;0.70;;
4652;SDS011;9900;48.738;9.306;2023-08-06T11:53:06;1.73;;;0.67;;
4652;SDS011;9900;48.738;9.306;2023-08-06T11:55:35;1.10;;;0.77;;
4652;SDS011;9900;48.738;9.306;2023-08-06T11:58:04;1.00;;;0.70;;
4652;SDS011;9900;48.738;9.306;2023-08-06T12:00:34;2.27;;;0.70;;
4652;SDS011;9900;48.738;9.306;2023-08-06T12:03:05;0.90;;;0.73;;
4652;SDS011;9900;48.738;9.306;2023-08-06T12:05:34;1.87;;;1.00;;
4652;SDS011;9900;48.738;9.306;2023-08-06T12:08:05;2.13;;;0.80;;
4652;SDS011;9900;48.738;9.306;2023-08-06T12:10:34;1.77;;;0.80;;
4652;SDS011;9900;48.738;9.306;2023-08-06T12:13:03;1.00;;;0.70;;
4652;SDS011;9900;48.738;9.306;2023-08-06T12:15:33;3.43;;;0.80;;
4652;SDS011;9900;48.738;9.306;2023-08-06T12:18:03;1.77;;;0.90;;
4652;SDS011;9900;48.738;9.306;2023-08-06T12:20:33;4.33;;;1.30;;
4652;SDS011;9900;48.738;9.306;2023-08-06T12:23:02;3.13;;;0.90;;
4652;SDS011;9900;48.738;9.306;2023-08-06T12:25:34;0.83;;;0.77;;
4652;SDS011;9900;48.738;9.306;2023-08-06T12:28:03;2.13;;;1.00;;
4652;SDS011;9900;48.738;9.306;2023-08-06T12:30:34;0.93;;;0.83;;
4652;SDS011;9900;48.738;9.306;2023-08-06T12:33:03;2.23;;;1.07;;
4652;SDS011;9900;48.738;9.306;2023-08-06T12:35:32;0.80;;;0.80;;
4652;SDS011;9900;48.738;9.306;2023-08-06T12:38:01;2.50;;;0.83;;
4652;SDS011;9900;48.738;9.306;2023-08-06T12:40:30;2.17;;;0.80;;
4652;SDS011;9900;48.738;9.306;2023-08-06T12:43:06;1.13;;;1.03;;
4652;SDS011;9900;48.738;9.306;2023-08-06T12:45:36;1.00;;;0.83;;
4652;SDS011;9900;48.738;9.306;2023-08-06T12:48:05;6.20;;;1.00;;
4652;SDS011;9900;48.738;9.306;2023-08-06T12:50:34;1.20;;;1.00;;
4652;SDS011;9900;48.738;9.306;2023-08-06T12:53:03;3.83;;;0.90;;
4652;SDS011;9900;48.738;9.306;2023-08-06T12:55:33;0.80;;;0.77;;
4652;SDS011;9900;48.738;9.306;2023-08-06T12:58:01;1.27;;;0.90;;
4652;SDS011;9900;48.738;9.306;2023-08-06T13:00:30;1.10;;;0.90;;
4652;SDS011;9900;48.738;9.306;2023-08-06T13:03:01;1.10;;;0.80;;
4652;SDS011;9900;48.738;9.306;2023-08-06T13:05:31;1.03;;;0.80;;
4652;SDS011;9900;48.738;9.306;2023-08-06T13:08:00;1.10;;;0.80;;
4652;SDS011;9900;48.738;9.306;2023-08-06T13:10:28;1.47;;;0.70;;
4652;SDS011;9900;48.738;9.306;2023-08-06T13:12:58;2.40;;;1.10;;
4652;SDS011;9900;48.738;9.306;2023-08-06T13:15:27;1.00;;;0.90;;
4652;SDS011;9900;48.738;9.306;2023-08-06T13:17:56;1.00;;;0.90;;
4652;SDS011;9900;48.738;9.306;2023-08-06T13:20:29;1.27;;;0.90;;
4652;SDS011;9900;48.738;9.306;2023-08-06T13:22:58;1.00;;;0.83;;
4652;SDS011;9900;48.738;9.306;2023-08-06T13:25:28;1.30;;;1.00;;
4652;SDS011;9900;48.738;9.306;2023-08-06T13:27:57;3.07;;;1.10;;
4652;SDS011;9900;48.738;9.306;2023-08-06T13:30:26;1.90;;;1.13;;
4652;SDS011;9900;48.738;9.306;2023-08-06T13:32:56;1.30;;;0.90;;
4652;SDS011;9900;48.738;9.306;2023-08-06T13:35:27;1.30;;;0.83;;
4652;SDS011;9900;48.738;9.306;2023-08-06T13:37:56;1.20;;;1.00;;
4652;SDS011;9900;48.738;9.306;2023-08-06T13:40:25;0.90;;;0.80;;
4652;SDS011;9900;48.738;9.306;2023-08-06T13:42:54;0.80;;;0.80;;
4652;SDS011;9900;48.738;9.306;2023-08-06T13:45:23;0.93;;;0.80;;
4652;SDS011;9900;48.738;9.306;2023-08-06T13:47:52;2.00;;;0.90;;
4652;SDS011;9900;48.738;9.306;2023-08-06T13:50:21;3.53;;;1.30;;
4652;SDS011;9900;48.738;9.306;2023-08-06T13:52:54;3.73;;;1.10;;
4652;SDS011;9900;48.738;9.306;2023-08-06T13:55:23;1.10;;;0.90;;
4652;SDS011;9900;48.738;9.306;2023-08-06T13:57:54;1.20;;;0.90;;
4652;SDS011;9900;48.738;9.306;2023-08-06T14:00:23;7.00;;;0.80;;
4652;SDS011;9900;48.738;9.306;2023-08-06T14:02:52;1.37;;;0.73;;
4652;SDS011;9900;48.738;9.306;2023-08-06T14:05:21;1.43;;;0.90;;
4652;SDS011;9900;48.738;9.306;2023-08-06T14:07:50;0.90;;;0.67;;
4652;SDS011;9900;48.738;9.306;2023-08-06T14:10:20;2.43;;;0.73;;
4652;SDS011;9900;48.738;9.306;2023-08-06T14:12:49;1.60;;;0.93;;
4652;SDS011;9900;48.738;9.306;2023-08-06T14:15:37;1.00;;;0.80;;
4652;SDS011;9900;48.738;9.306;2023-08-06T14:18:07;2.13;;;0.80;;
4652;SDS011;9900;48.738;9.306;2023-08-06T14:20:36;1.33;;;0.70;;
4652;SDS011;9900;48.738;9.306;2023-08-06T14:23:05;1.00;;;0.70;;
4652;SDS011;9900;48.738;9.306;2023-08-06T14:25:36;0.90;;;0.80;;
4652;SDS011;9900;48.738;9.306;2023-08-06T14:28:05;1.27;;;0.90;;
4652;SDS011;9900;48.738;9.306;2023-08-06T14:30:36;1.30;;;0.70;;
4652;SDS011;9900;48.738;9.306;2023-08-06T14:33:05;1.13;;;1.00;;
4652;SDS011;9900;48.738;9.306;2023-08-06T14:35:52;0.77;;;0.70;;
4652;SDS011;9900;48.738;9.306;2023-08-06T14:38:21;1.40;;;1.00;;
4652;SDS011;9900;48.738;9.306;2023-08-06T14:40:51;2.93;;;1.40;;
4652;SDS011;9900;48.738;9.306;2023-08-06T14:43:20;3.97;;;1.13;;
4652;SDS011;9900;48.738;9.306;2023-08-06T14:45:49;0.80;;;0.80;;
4652;SDS011;9900;48.738;9.306;2023-08-06T14:48:19;2.20;;;0.83;;
4652;SDS011;9900;48.738;9.306;2023-08-06T14:50:47;1.67;;;0.70;;
4652;SDS011;9900;48.738;9.306;2023-08-06T14:53:17;0.90;;;0.60;;
4652;SDS011;9900;48.738;9.306;2023-08-06T14:55:45;0.90;;;0.80;;
4652;SDS011;9900;48.738;9.306;2023-08-06T14:58:16;1.00;;;0.70;;
4652;SDS011;9900;48.738;9.306;2023-08-06T15:00:45;0.90;;;0.60;;
4652;SDS011;9900;48.738;9.306;2023-08-06T15:03:14;0.90;;;0.80;;
4652;SDS011;9900;48.738;9.306;2023-08-06T15:05:43;2.60;;;0.70;;
4652;SDS011;9900;48.738;9.306;2023-08-06T15:08:12;0.83;;;0.70;;
4652;SDS011;9900;48.738;9.306;2023-08-06T15:10:41;1.00;;;0.70;;
4652;SDS011;9900;48.738;9.306;2023-08-06T15:13:10;1.67;;;0.70;;
4652;SDS011;9900;48.738;9.306;2023-08-06T15:15:40;1.90;;;0.73;;
4652;SDS011;9900;48.738;9.306;2023-08-06T15:18:12;3.23;;;1.00;;
4652;SDS011;9900;48.738;9.306;2023-08-06T15:20:41;1.00;;;0.80;;
4652;SDS011;9900;48.738;9.306;2023-08-06T15:23:10;4.80;;;0.90;;
4652;SDS011;9900;48.738;9.306;2023-08-06T15:25:39;1.20;;;0.70;;
4652;SDS011;9900;48.738;9.306;2023-08-06T15:28:08;0.83;;;0.70;;
4652;SDS011;9900;48.738;9.306;2023-08-06T15:30:37;0.90;;;0.77;;